sensor_id;sensor_type;location;lat;lon;timestamp;P1;durP1;ratioP1;P2;durP2;ratioP2
76786;SDS011;65739;51.482;5.702;2023-02-24T00:00:15;28.55;;;3.90;;
76786;SDS011;65739;51.482;5.702;2023-02-24T00:03:02;22.85;;;3.78;;
76786;SDS011;65739;51.482;5.702;2023-02-24T00:05:38;25.55;;;4.00;;
76786;SDS011;65739;51.482;5.702;2023-02-24T00:11:26;22.98;;;4.38;;
76786;SDS011;65739;51.482;5.702;2023-02-24T00:14:17;41.33;;;4.95;;
76786;SDS011;65739;51.482;5.702;2023-02-24T00:16:45;24.38;;;5.20;;
76786;SDS011;65739;51.482;5.702;2023-02-24T00:19:12;28.08;;;5.90;;
76786;SDS011;65739;51.482;5.702;2023-02-24T00:21:43;30.02;;;6.72;;
76786;SDS011;65739;51.482;5.702;2023-02-24T00:24:09;43.30;;;6.50;;
76786;SDS011;65739;51.482;5.702;2023-02-24T00:26:39;40.63;;;6.78;;
76786;SDS011;65739;51.482;5.702;2023-02-24T00:29:12;37.03;;;6.85;;
76786;SDS011;65739;51.482;5.702;2023-02-24T00:31:38;32.05;;;5.55;;
76786;SDS011;65739;51.482;5.702;2023-02-24T00:34:07;27.80;;;5.93;;
76786;SDS011;65739;51.482;5.702;2023-02-24T00:36:39;29.75;;;6.07;;
76786;SDS011;65739;51.482;5.702;2023-02-24T00:39:06;36.75;;;6.20;;
76786;SDS011;65739;51.482;5.702;2023-02-24T00:41:35;32.05;;;6.13;;
76786;SDS011;65739;51.482;5.702;2023-02-24T00:44:09;25.83;;;5.00;;
76786;SDS011;65739;51.482;5.702;2023-02-24T00:46:42;27.77;;;5.80;;
76786;SDS011;65739;51.482;5.702;2023-02-24T00:49:17;28.08;;;4.95;;
76786;SDS011;65739;51.482;5.702;2023-02-24T00:51:48;28.20;;;5.18;;
76786;SDS011;65739;51.482;5.702;2023-02-24T00:54:18;24.43;;;5.43;;
76786;SDS011;65739;51.482;5.702;2023-02-24T00:56:47;30.05;;;4.97;;
76786;SDS011;65739;51.482;5.702;2023-02-24T00:59:15;27.27;;;4.68;;
76786;SDS011;65739;51.482;5.702;2023-02-24T01:01:46;31.55;;;5.80;;
76786;SDS011;65739;51.482;5.702;2023-02-24T01:04:35;29.08;;;5.30;;
76786;SDS011;65739;51.482;5.702;2023-02-24T01:07:01;33.80;;;5.38;;
76786;SDS011;65739;51.482;5.702;2023-02-24T01:09:37;33.38;;;5.57;;
76786;SDS011;65739;51.482;5.702;2023-02-24T01:12:06;36.20;;;5.45;;
76786;SDS011;65739;51.482;5.702;2023-02-24T01:14:51;36.58;;;5.10;;
76786;SDS011;65739;51.482;5.702;2023-02-24T01:17:21;35.78;;;5.55;;
76786;SDS011;65739;51.482;5.702;2023-02-24T01:19:59;31.75;;;5.85;;
76786;SDS011;65739;51.482;5.702;2023-02-24T01:25:31;41.60;;;5.60;;
76786;SDS011;65739;51.482;5.702;2023-02-24T01:27:57;30.77;;;5.78;;
76786;SDS011;65739;51.482;5.702;2023-02-24T01:30:25;34.90;;;6.03;;
76786;SDS011;65739;51.482;5.702;2023-02-24T01:32:58;33.78;;;5.53;;
76786;SDS011;65739;51.482;5.702;2023-02-24T01:35:24;33.63;;;5.68;;
76786;SDS011;65739;51.482;5.702;2023-02-24T01:38:07;27.55;;;5.28;;
76786;SDS011;65739;51.482;5.702;2023-02-24T01:40:36;28.20;;;5.35;;
76786;SDS011;65739;51.482;5.702;2023-02-24T01:43:02;23.65;;;4.95;;
76786;SDS011;65739;51.482;5.702;2023-02-24T01:45:35;31.70;;;5.05;;
76786;SDS011;65739;51.482;5.702;2023-02-24T01:48:05;24.38;;;4.55;;
76786;SDS011;65739;51.482;5.702;2023-02-24T01:50:34;33.70;;;4.95;;
76786;SDS011;65739;51.482;5.702;2023-02-24T01:53:04;28.67;;;5.05;;
76786;SDS011;65739;51.482;5.702;2023-02-24T01:55:42;27.67;;;4.47;;
76786;SDS011;65739;51.482;5.702;2023-02-24T01:58:24;29.58;;;5.20;;
76786;SDS011;65739;51.482;5.702;2023-02-24T02:00:55;22.00;;;4.53;;
76786;SDS011;65739;51.482;5.702;2023-02-24T02:03:31;22.30;;;4.05;;
76786;SDS011;65739;51.482;5.702;2023-02-24T02:06:03;24.63;;;4.35;;
76786;SDS011;65739;51.482;5.702;2023-02-24T02:08:36;25.63;;;4.63;;
76786;SDS011;65739;51.482;5.702;2023-02-24T02:11:05;30.08;;;5.38;;
76786;SDS011;65739;51.482;5.702;2023-02-24T02:13:38;28.02;;;4.72;;
76786;SDS011;65739;51.482;5.702;2023-02-24T02:16:22;26.45;;;4.72;;
76786;SDS011;65739;51.482;5.702;2023-02-24T02:22:14;26.08;;;4.22;;
76786;SDS011;65739;51.482;5.702;2023-02-24T02:25:07;25.10;;;4.18;;
76786;SDS011;65739;51.482;5.702;2023-02-24T02:31:11;18.85;;;4.28;;
76786;SDS011;65739;51.482;5.702;2023-02-24T02:34:07;22.73;;;3.45;;
76786;SDS011;65739;51.482;5.702;2023-02-24T02:37:04;17.50;;;3.38;;
76786;SDS011;65739;51.482;5.702;2023-02-24T02:43:17;11.68;;;3.50;;
76786;SDS011;65739;51.482;5.702;2023-02-24T02:48:52;19.05;;;3.80;;
76786;SDS011;65739;51.482;5.702;2023-02-24T02:51:49;18.80;;;3.75;;
76786;SDS011;65739;51.482;5.702;2023-02-24T02:57:19;12.90;;;3.83;;
76786;SDS011;65739;51.482;5.702;2023-02-24T03:00:02;15.80;;;4.10;;
76786;SDS011;65739;51.482;5.702;2023-02-24T03:02:36;19.92;;;3.15;;
76786;SDS011;65739;51.482;5.702;2023-02-24T03:05:09;25.58;;;3.88;;
76786;SDS011;65739;51.482;5.702;2023-02-24T03:07:50;13.32;;;3.03;;
76786;SDS011;65739;51.482;5.702;2023-02-24T03:10:21;17.83;;;3.60;;
76786;SDS011;65739;51.482;5.702;2023-02-24T03:15:37;18.20;;;3.15;;
76786;SDS011;65739;51.482;5.702;2023-02-24T03:18:12;14.10;;;2.85;;
76786;SDS011;65739;51.482;5.702;2023-02-24T03:20:52;19.45;;;3.28;;
76786;SDS011;65739;51.482;5.702;2023-02-24T03:23:32;17.65;;;2.67;;
76786;SDS011;65739;51.482;5.702;2023-02-24T03:31:41;15.05;;;2.92;;
76786;SDS011;65739;51.482;5.702;2023-02-24T03:34:26;13.25;;;2.80;;
76786;SDS011;65739;51.482;5.702;2023-02-24T03:37:33;12.00;;;2.60;;
76786;SDS011;65739;51.482;5.702;2023-02-24T03:40:04;14.83;;;2.73;;
76786;SDS011;65739;51.482;5.702;2023-02-24T03:42:35;11.93;;;2.55;;
76786;SDS011;65739;51.482;5.702;2023-02-24T03:45:05;13.13;;;2.40;;
76786;SDS011;65739;51.482;5.702;2023-02-24T03:47:36;17.15;;;2.97;;
76786;SDS011;65739;51.482;5.702;2023-02-24T03:50:15;10.73;;;2.33;;
76786;SDS011;65739;51.482;5.702;2023-02-24T04:01:14;15.40;;;2.17;;
76786;SDS011;65739;51.482;5.702;2023-02-24T04:04:17;13.43;;;2.40;;
76786;SDS011;65739;51.482;5.702;2023-02-24T04:09:55;12.68;;;2.45;;
76786;SDS011;65739;51.482;5.702;2023-02-24T04:13:01;11.70;;;2.42;;
76786;SDS011;65739;51.482;5.702;2023-02-24T04:15:46;10.57;;;2.30;;
76786;SDS011;65739;51.482;5.702;2023-02-24T04:20:50;12.23;;;2.40;;
76786;SDS011;65739;51.482;5.702;2023-02-24T04:23:21;8.85;;;2.30;;
76786;SDS011;65739;51.482;5.702;2023-02-24T04:25:51;16.17;;;2.60;;
76786;SDS011;65739;51.482;5.702;2023-02-24T04:28:24;14.73;;;2.45;;
76786;SDS011;65739;51.482;5.702;2023-02-24T04:30:56;10.68;;;2.28;;
76786;SDS011;65739;51.482;5.702;2023-02-24T04:33:35;12.85;;;2.20;;
76786;SDS011;65739;51.482;5.702;2023-02-24T04:36:10;9.75;;;2.10;;
76786;SDS011;65739;51.482;5.702;2023-02-24T04:38:37;15.57;;;2.33;;
76786;SDS011;65739;51.482;5.702;2023-02-24T04:41:06;18.90;;;2.42;;
76786;SDS011;65739;51.482;5.702;2023-02-24T04:43:35;15.25;;;2.22;;
76786;SDS011;65739;51.482;5.702;2023-02-24T04:46:02;17.60;;;3.53;;
76786;SDS011;65739;51.482;5.702;2023-02-24T04:48:32;9.43;;;2.60;;
76786;SDS011;65739;51.482;5.702;2023-02-24T04:51:06;16.63;;;2.20;;
76786;SDS011;65739;51.482;5.702;2023-02-24T04:53:34;14.00;;;3.08;;
76786;SDS011;65739;51.482;5.702;2023-02-24T04:56:02;13.50;;;2.45;;
76786;SDS011;65739;51.482;5.702;2023-02-24T04:58:38;10.75;;;1.92;;
76786;SDS011;65739;51.482;5.702;2023-02-24T05:01:13;10.95;;;2.20;;
76786;SDS011;65739;51.482;5.702;2023-02-24T05:03:47;13.60;;;2.20;;
76786;SDS011;65739;51.482;5.702;2023-02-24T05:06:16;16.50;;;2.22;;
76786;SDS011;65739;51.482;5.702;2023-02-24T05:08:45;12.48;;;2.00;;
76786;SDS011;65739;51.482;5.702;2023-02-24T05:11:18;9.55;;;1.90;;
76786;SDS011;65739;51.482;5.702;2023-02-24T05:13:48;11.80;;;2.53;;
76786;SDS011;65739;51.482;5.702;2023-02-24T05:16:16;8.02;;;1.63;;
76786;SDS011;65739;51.482;5.702;2023-02-24T05:18:46;12.55;;;2.08;;
76786;SDS011;65739;51.482;5.702;2023-02-24T05:21:42;14.90;;;2.17;;
76786;SDS011;65739;51.482;5.702;2023-02-24T05:24:08;12.27;;;1.88;;
76786;SDS011;65739;51.482;5.702;2023-02-24T05:26:35;15.63;;;2.40;;
76786;SDS011;65739;51.482;5.702;2023-02-24T05:29:06;10.93;;;2.75;;
76786;SDS011;65739;51.482;5.702;2023-02-24T05:31:39;9.65;;;2.45;;
76786;SDS011;65739;51.482;5.702;2023-02-24T05:34:10;13.68;;;2.25;;
76786;SDS011;65739;51.482;5.702;2023-02-24T05:36:50;13.98;;;2.05;;
76786;SDS011;65739;51.482;5.702;2023-02-24T05:39:22;11.02;;;1.98;;
76786;SDS011;65739;51.482;5.702;2023-02-24T05:41:52;23.73;;;2.42;;
76786;SDS011;65739;51.482;5.702;2023-02-24T05:47:31;8.40;;;1.70;;
76786;SDS011;65739;51.482;5.702;2023-02-24T05:50:12;11.93;;;2.25;;
76786;SDS011;65739;51.482;5.702;2023-02-24T05:53:13;14.13;;;2.10;;
76786;SDS011;65739;51.482;5.702;2023-02-24T05:55:42;20.95;;;2.10;;
76786;SDS011;65739;51.482;5.702;2023-02-24T05:58:46;12.80;;;2.00;;
76786;SDS011;65739;51.482;5.702;2023-02-24T06:01:23;17.52;;;2.35;;
76786;SDS011;65739;51.482;5.702;2023-02-24T06:03:56;17.17;;;2.45;;
76786;SDS011;65739;51.482;5.702;2023-02-24T06:06:29;14.13;;;2.33;;
76786;SDS011;65739;51.482;5.702;2023-02-24T06:09:00;10.75;;;2.05;;
76786;SDS011;65739;51.482;5.702;2023-02-24T06:11:54;15.55;;;2.65;;
76786;SDS011;65739;51.482;5.702;2023-02-24T06:14:21;10.82;;;2.20;;
76786;SDS011;65739;51.482;5.702;2023-02-24T06:16:49;13.93;;;2.28;;
76786;SDS011;65739;51.482;5.702;2023-02-24T06:19:24;12.95;;;1.95;;
76786;SDS011;65739;51.482;5.702;2023-02-24T06:21:56;13.02;;;2.30;;
76786;SDS011;65739;51.482;5.702;2023-02-24T06:24:27;10.93;;;2.50;;
76786;SDS011;65739;51.482;5.702;2023-02-24T06:26:54;19.75;;;2.35;;
76786;SDS011;65739;51.482;5.702;2023-02-24T06:29:39;22.08;;;2.95;;
76786;SDS011;65739;51.482;5.702;2023-02-24T06:32:08;16.30;;;2.28;;
76786;SDS011;65739;51.482;5.702;2023-02-24T06:34:37;15.13;;;2.58;;
76786;SDS011;65739;51.482;5.702;2023-02-24T06:37:05;10.88;;;2.20;;
76786;SDS011;65739;51.482;5.702;2023-02-24T06:39:38;11.30;;;2.42;;
76786;SDS011;65739;51.482;5.702;2023-02-24T06:44:59;14.10;;;2.70;;
76786;SDS011;65739;51.482;5.702;2023-02-24T06:47:27;12.48;;;3.10;;
76786;SDS011;65739;51.482;5.702;2023-02-24T06:49:56;15.68;;;2.92;;
76786;SDS011;65739;51.482;5.702;2023-02-24T06:52:22;18.10;;;2.58;;
76786;SDS011;65739;51.482;5.702;2023-02-24T06:54:51;13.90;;;2.50;;
76786;SDS011;65739;51.482;5.702;2023-02-24T06:57:17;9.38;;;2.75;;
76786;SDS011;65739;51.482;5.702;2023-02-24T06:59:49;11.73;;;2.17;;
76786;SDS011;65739;51.482;5.702;2023-02-24T07:04:54;18.30;;;2.70;;
76786;SDS011;65739;51.482;5.702;2023-02-24T07:07:26;15.55;;;3.22;;
76786;SDS011;65739;51.482;5.702;2023-02-24T07:09:56;13.43;;;2.67;;
76786;SDS011;65739;51.482;5.702;2023-02-24T07:12:24;9.63;;;2.47;;
76786;SDS011;65739;51.482;5.702;2023-02-24T07:14:50;17.23;;;2.65;;
76786;SDS011;65739;51.482;5.702;2023-02-24T07:17:33;9.77;;;3.08;;
76786;SDS011;65739;51.482;5.702;2023-02-24T07:22:36;13.77;;;2.92;;
76786;SDS011;65739;51.482;5.702;2023-02-24T07:25:24;13.73;;;3.20;;
76786;SDS011;65739;51.482;5.702;2023-02-24T07:27:59;8.70;;;2.35;;
76786;SDS011;65739;51.482;5.702;2023-02-24T07:30:28;9.75;;;2.90;;
76786;SDS011;65739;51.482;5.702;2023-02-24T07:32:58;16.55;;;2.90;;
76786;SDS011;65739;51.482;5.702;2023-02-24T07:35:28;13.75;;;3.38;;
76786;SDS011;65739;51.482;5.702;2023-02-24T07:37:57;28.48;;;3.00;;
76786;SDS011;65739;51.482;5.702;2023-02-24T07:40:44;8.88;;;2.80;;
76786;SDS011;65739;51.482;5.702;2023-02-24T07:43:14;15.05;;;3.00;;
76786;SDS011;65739;51.482;5.702;2023-02-24T07:45:43;19.30;;;3.08;;
76786;SDS011;65739;51.482;5.702;2023-02-24T07:48:16;13.43;;;2.45;;
76786;SDS011;65739;51.482;5.702;2023-02-24T07:50:45;11.43;;;2.88;;
76786;SDS011;65739;51.482;5.702;2023-02-24T07:53:15;13.95;;;2.78;;
76786;SDS011;65739;51.482;5.702;2023-02-24T07:59:06;12.40;;;2.45;;
76786;SDS011;65739;51.482;5.702;2023-02-24T08:01:40;9.95;;;2.28;;
76786;SDS011;65739;51.482;5.702;2023-02-24T08:04:14;14.77;;;2.55;;
76786;SDS011;65739;51.482;5.702;2023-02-24T08:06:53;12.32;;;2.50;;
76786;SDS011;65739;51.482;5.702;2023-02-24T08:09:27;14.30;;;2.30;;
76786;SDS011;65739;51.482;5.702;2023-02-24T08:12:29;16.17;;;2.97;;
76786;SDS011;65739;51.482;5.702;2023-02-24T08:14:58;12.50;;;2.35;;
76786;SDS011;65739;51.482;5.702;2023-02-24T08:17:24;12.13;;;1.90;;
76786;SDS011;65739;51.482;5.702;2023-02-24T08:19:54;7.90;;;1.95;;
76786;SDS011;65739;51.482;5.702;2023-02-24T08:22:41;15.40;;;2.50;;
76786;SDS011;65739;51.482;5.702;2023-02-24T08:25:12;9.88;;;1.88;;
76786;SDS011;65739;51.482;5.702;2023-02-24T08:27:50;14.90;;;2.22;;
76786;SDS011;65739;51.482;5.702;2023-02-24T08:30:24;5.93;;;2.15;;
76786;SDS011;65739;51.482;5.702;2023-02-24T08:33:03;9.95;;;2.28;;
76786;SDS011;65739;51.482;5.702;2023-02-24T08:35:37;15.05;;;2.45;;
76786;SDS011;65739;51.482;5.702;2023-02-24T08:38:12;13.07;;;2.53;;
76786;SDS011;65739;51.482;5.702;2023-02-24T08:41:02;12.55;;;2.03;;
76786;SDS011;65739;51.482;5.702;2023-02-24T08:43:30;12.77;;;1.95;;
76786;SDS011;65739;51.482;5.702;2023-02-24T08:46:13;13.15;;;2.08;;
76786;SDS011;65739;51.482;5.702;2023-02-24T08:48:53;9.07;;;1.95;;
76786;SDS011;65739;51.482;5.702;2023-02-24T08:51:45;12.52;;;1.90;;
76786;SDS011;65739;51.482;5.702;2023-02-24T08:54:37;9.63;;;1.73;;
76786;SDS011;65739;51.482;5.702;2023-02-24T08:57:16;11.82;;;2.03;;
76786;SDS011;65739;51.482;5.702;2023-02-24T08:59:53;11.40;;;1.65;;
76786;SDS011;65739;51.482;5.702;2023-02-24T09:02:22;7.63;;;1.58;;
76786;SDS011;65739;51.482;5.702;2023-02-24T09:05:04;13.65;;;1.90;;
76786;SDS011;65739;51.482;5.702;2023-02-24T09:07:41;10.52;;;1.83;;
76786;SDS011;65739;51.482;5.702;2023-02-24T09:10:18;7.05;;;1.55;;
76786;SDS011;65739;51.482;5.702;2023-02-24T09:12:48;5.38;;;1.55;;
76786;SDS011;65739;51.482;5.702;2023-02-24T09:15:17;12.35;;;2.30;;
76786;SDS011;65739;51.482;5.702;2023-02-24T09:17:52;11.73;;;2.30;;
76786;SDS011;65739;51.482;5.702;2023-02-24T09:20:34;13.35;;;2.22;;
76786;SDS011;65739;51.482;5.702;2023-02-24T09:23:26;13.60;;;1.67;;
76786;SDS011;65739;51.482;5.702;2023-02-24T09:26:13;11.57;;;1.90;;
76786;SDS011;65739;51.482;5.702;2023-02-24T09:28:56;11.77;;;1.92;;
76786;SDS011;65739;51.482;5.702;2023-02-24T09:31:47;10.15;;;1.75;;
76786;SDS011;65739;51.482;5.702;2023-02-24T09:34:22;14.27;;;2.03;;
76786;SDS011;65739;51.482;5.702;2023-02-24T09:36:57;8.73;;;1.80;;
76786;SDS011;65739;51.482;5.702;2023-02-24T09:39:28;9.45;;;1.80;;
76786;SDS011;65739;51.482;5.702;2023-02-24T09:42:42;11.82;;;2.22;;
76786;SDS011;65739;51.482;5.702;2023-02-24T09:45:13;11.20;;;2.08;;
76786;SDS011;65739;51.482;5.702;2023-02-24T09:48:08;9.90;;;1.98;;
76786;SDS011;65739;51.482;5.702;2023-02-24T09:51:25;16.05;;;2.30;;
76786;SDS011;65739;51.482;5.702;2023-02-24T09:53:56;6.43;;;1.80;;
76786;SDS011;65739;51.482;5.702;2023-02-24T09:56:27;11.38;;;1.92;;
76786;SDS011;65739;51.482;5.702;2023-02-24T09:59:18;11.95;;;2.25;;
76786;SDS011;65739;51.482;5.702;2023-02-24T10:02:37;9.90;;;2.20;;
76786;SDS011;65739;51.482;5.702;2023-02-24T10:07:48;12.57;;;2.03;;
76786;SDS011;65739;51.482;5.702;2023-02-24T10:10:18;11.20;;;2.33;;
76786;SDS011;65739;51.482;5.702;2023-02-24T10:16:14;10.25;;;1.85;;
76786;SDS011;65739;51.482;5.702;2023-02-24T10:19:09;13.38;;;2.20;;
76786;SDS011;65739;51.482;5.702;2023-02-24T10:24:52;11.80;;;2.30;;
76786;SDS011;65739;51.482;5.702;2023-02-24T10:34:15;14.73;;;4.57;;
76786;SDS011;65739;51.482;5.702;2023-02-24T10:36:50;11.15;;;2.40;;
76786;SDS011;65739;51.482;5.702;2023-02-24T10:39:20;9.50;;;2.22;;
76786;SDS011;65739;51.482;5.702;2023-02-24T10:42:03;7.07;;;1.95;;
76786;SDS011;65739;51.482;5.702;2023-02-24T10:45:22;8.25;;;2.25;;
76786;SDS011;65739;51.482;5.702;2023-02-24T10:48:27;12.52;;;1.90;;
76786;SDS011;65739;51.482;5.702;2023-02-24T10:50:55;12.95;;;2.38;;
76786;SDS011;65739;51.482;5.702;2023-02-24T10:54:49;8.43;;;2.05;;
76786;SDS011;65739;51.482;5.702;2023-02-24T10:57:43;17.95;;;2.90;;
76786;SDS011;65739;51.482;5.702;2023-02-24T11:00:19;13.77;;;2.70;;
76786;SDS011;65739;51.482;5.702;2023-02-24T11:03:06;11.23;;;2.25;;
76786;SDS011;65739;51.482;5.702;2023-02-24T11:05:49;14.35;;;2.35;;
76786;SDS011;65739;51.482;5.702;2023-02-24T11:08:55;9.13;;;1.95;;
76786;SDS011;65739;51.482;5.702;2023-02-24T11:11:41;11.43;;;2.28;;
76786;SDS011;65739;51.482;5.702;2023-02-24T11:21:31;11.48;;;2.80;;
76786;SDS011;65739;51.482;5.702;2023-02-24T11:30:43;10.60;;;2.50;;
76786;SDS011;65739;51.482;5.702;2023-02-24T11:33:23;13.55;;;2.78;;
76786;SDS011;65739;51.482;5.702;2023-02-24T11:36:11;9.77;;;2.88;;
76786;SDS011;65739;51.482;5.702;2023-02-24T11:42:01;11.77;;;2.42;;
76786;SDS011;65739;51.482;5.702;2023-02-24T11:47:30;9.00;;;2.63;;
76786;SDS011;65739;51.482;5.702;2023-02-24T11:55:40;15.77;;;3.30;;
76786;SDS011;65739;51.482;5.702;2023-02-24T11:58:22;10.50;;;3.33;;
76786;SDS011;65739;51.482;5.702;2023-02-24T12:01:02;9.32;;;3.45;;
76786;SDS011;65739;51.482;5.702;2023-02-24T12:06:26;12.60;;;4.27;;
76786;SDS011;65739;51.482;5.702;2023-02-24T12:09:06;14.32;;;3.83;;
76786;SDS011;65739;51.482;5.702;2023-02-24T12:11:56;14.82;;;4.07;;
76786;SDS011;65739;51.482;5.702;2023-02-24T12:14:43;18.23;;;3.92;;
76786;SDS011;65739;51.482;5.702;2023-02-24T12:17:33;9.85;;;3.80;;
76786;SDS011;65739;51.482;5.702;2023-02-24T12:20:17;12.70;;;4.25;;
76786;SDS011;65739;51.482;5.702;2023-02-24T12:23:01;14.77;;;3.80;;
76786;SDS011;65739;51.482;5.702;2023-02-24T12:36:54;12.32;;;4.43;;
76786;SDS011;65739;51.482;5.702;2023-02-24T12:59:33;14.05;;;4.40;;
76786;SDS011;65739;51.482;5.702;2023-02-24T13:02:23;12.13;;;4.82;;
76786;SDS011;65739;51.482;5.702;2023-02-24T13:08:37;18.35;;;4.57;;
76786;SDS011;65739;51.482;5.702;2023-02-24T13:11:28;10.65;;;4.05;;
76786;SDS011;65739;51.482;5.702;2023-02-24T13:16:41;11.48;;;4.53;;
76786;SDS011;65739;51.482;5.702;2023-02-24T13:19:21;8.32;;;4.68;;
76786;SDS011;65739;51.482;5.702;2023-02-24T13:27:53;9.13;;;4.85;;
76786;SDS011;65739;51.482;5.702;2023-02-24T13:30:25;13.32;;;5.25;;
76786;SDS011;65739;51.482;5.702;2023-02-24T13:33:03;12.82;;;5.30;;
76786;SDS011;65739;51.482;5.702;2023-02-24T13:36:06;13.25;;;4.72;;
76786;SDS011;65739;51.482;5.702;2023-02-24T13:38:41;11.82;;;5.57;;
76786;SDS011;65739;51.482;5.702;2023-02-24T13:44:21;8.38;;;4.68;;
76786;SDS011;65739;51.482;5.702;2023-02-24T13:47:19;15.00;;;6.07;;
76786;SDS011;65739;51.482;5.702;2023-02-24T13:50:13;12.50;;;5.70;;
76786;SDS011;65739;51.482;5.702;2023-02-24T14:01:25;11.02;;;5.63;;
76786;SDS011;65739;51.482;5.702;2023-02-24T14:04:12;9.70;;;6.00;;
76786;SDS011;65739;51.482;5.702;2023-02-24T14:06:54;10.73;;;6.82;;
76786;SDS011;65739;51.482;5.702;2023-02-24T14:09:49;8.18;;;6.28;;
76786;SDS011;65739;51.482;5.702;2023-02-24T14:12:44;11.20;;;7.03;;
76786;SDS011;65739;51.482;5.702;2023-02-24T14:15:12;15.27;;;7.20;;
76786;SDS011;65739;51.482;5.702;2023-02-24T14:18:21;13.25;;;7.55;;
76786;SDS011;65739;51.482;5.702;2023-02-24T14:20:57;18.35;;;7.72;;
76786;SDS011;65739;51.482;5.702;2023-02-24T14:23:33;10.40;;;6.18;;
76786;SDS011;65739;51.482;5.702;2023-02-24T14:26:11;13.05;;;6.75;;
76786;SDS011;65739;51.482;5.702;2023-02-24T14:28:50;12.77;;;6.75;;
76786;SDS011;65739;51.482;5.702;2023-02-24T14:31:24;13.05;;;6.90;;
76786;SDS011;65739;51.482;5.702;2023-02-24T14:33:58;15.80;;;7.28;;
76786;SDS011;65739;51.482;5.702;2023-02-24T14:36:37;15.23;;;6.95;;
76786;SDS011;65739;51.482;5.702;2023-02-24T14:41:44;14.88;;;7.38;;
76786;SDS011;65739;51.482;5.702;2023-02-24T14:44:20;22.58;;;7.05;;
76786;SDS011;65739;51.482;5.702;2023-02-24T14:46:58;13.27;;;6.68;;
76786;SDS011;65739;51.482;5.702;2023-02-24T14:52:57;12.27;;;6.90;;
76786;SDS011;65739;51.482;5.702;2023-02-24T14:55:36;15.20;;;7.38;;
76786;SDS011;65739;51.482;5.702;2023-02-24T15:01:05;13.68;;;7.30;;
76786;SDS011;65739;51.482;5.702;2023-02-24T15:06:56;10.52;;;6.78;;
76786;SDS011;65739;51.482;5.702;2023-02-24T15:09:34;16.35;;;6.95;;
76786;SDS011;65739;51.482;5.702;2023-02-24T15:12:18;14.23;;;6.32;;
76786;SDS011;65739;51.482;5.702;2023-02-24T15:14:54;12.02;;;6.13;;
76786;SDS011;65739;51.482;5.702;2023-02-24T15:23:23;16.60;;;5.75;;
76786;SDS011;65739;51.482;5.702;2023-02-24T15:26:05;13.48;;;4.95;;
76786;SDS011;65739;51.482;5.702;2023-02-24T15:28:34;19.67;;;4.00;;
76786;SDS011;65739;51.482;5.702;2023-02-24T15:31:12;15.25;;;3.80;;
76786;SDS011;65739;51.482;5.702;2023-02-24T15:33:51;12.70;;;3.80;;
76786;SDS011;65739;51.482;5.702;2023-02-24T15:36:46;14.75;;;3.25;;
76786;SDS011;65739;51.482;5.702;2023-02-24T15:39:25;13.77;;;3.78;;
76786;SDS011;65739;51.482;5.702;2023-02-24T15:42:07;15.45;;;2.95;;
76786;SDS011;65739;51.482;5.702;2023-02-24T15:44:55;15.15;;;3.40;;
76786;SDS011;65739;51.482;5.702;2023-02-24T15:48:00;18.73;;;3.45;;
76786;SDS011;65739;51.482;5.702;2023-02-24T15:50:28;17.45;;;2.42;;
76786;SDS011;65739;51.482;5.702;2023-02-24T15:52:58;13.23;;;2.25;;
76786;SDS011;65739;51.482;5.702;2023-02-24T15:55:33;12.50;;;2.00;;
76786;SDS011;65739;51.482;5.702;2023-02-24T15:58:23;15.82;;;2.08;;
76786;SDS011;65739;51.482;5.702;2023-02-24T16:01:03;17.83;;;2.88;;
76786;SDS011;65739;51.482;5.702;2023-02-24T16:03:29;11.02;;;2.13;;
76786;SDS011;65739;51.482;5.702;2023-02-24T16:06:01;16.40;;;2.70;;
76786;SDS011;65739;51.482;5.702;2023-02-24T16:08:30;10.85;;;2.08;;
76786;SDS011;65739;51.482;5.702;2023-02-24T16:11:24;17.13;;;1.80;;
76786;SDS011;65739;51.482;5.702;2023-02-24T16:13:54;14.00;;;2.03;;
76786;SDS011;65739;51.482;5.702;2023-02-24T16:16:22;21.80;;;2.17;;
76786;SDS011;65739;51.482;5.702;2023-02-24T16:21:34;22.38;;;2.10;;
76786;SDS011;65739;51.482;5.702;2023-02-24T16:24:03;8.88;;;1.83;;
76786;SDS011;65739;51.482;5.702;2023-02-24T16:26:35;14.38;;;2.15;;
76786;SDS011;65739;51.482;5.702;2023-02-24T16:29:15;17.17;;;2.28;;
76786;SDS011;65739;51.482;5.702;2023-02-24T16:31:44;17.23;;;2.10;;
76786;SDS011;65739;51.482;5.702;2023-02-24T16:34:13;23.05;;;3.35;;
76786;SDS011;65739;51.482;5.702;2023-02-24T16:36:43;22.80;;;2.22;;
76786;SDS011;65739;51.482;5.702;2023-02-24T16:39:12;16.70;;;2.05;;
76786;SDS011;65739;51.482;5.702;2023-02-24T16:41:41;19.52;;;2.20;;
76786;SDS011;65739;51.482;5.702;2023-02-24T16:44:15;18.10;;;2.08;;
76786;SDS011;65739;51.482;5.702;2023-02-24T16:46:44;18.05;;;2.22;;
76786;SDS011;65739;51.482;5.702;2023-02-24T16:49:13;16.27;;;1.88;;
76786;SDS011;65739;51.482;5.702;2023-02-24T16:51:57;19.27;;;2.40;;
76786;SDS011;65739;51.482;5.702;2023-02-24T16:54:26;15.70;;;1.73;;
76786;SDS011;65739;51.482;5.702;2023-02-24T16:56:56;16.48;;;2.15;;
76786;SDS011;65739;51.482;5.702;2023-02-24T16:59:25;23.00;;;2.60;;
76786;SDS011;65739;51.482;5.702;2023-02-24T17:02:03;17.67;;;2.45;;
76786;SDS011;65739;51.482;5.702;2023-02-24T17:04:32;12.68;;;1.98;;
76786;SDS011;65739;51.482;5.702;2023-02-24T17:07:02;14.80;;;1.98;;
76786;SDS011;65739;51.482;5.702;2023-02-24T17:09:28;15.10;;;2.20;;
76786;SDS011;65739;51.482;5.702;2023-02-24T17:12:00;13.57;;;1.75;;
76786;SDS011;65739;51.482;5.702;2023-02-24T17:14:29;11.35;;;1.67;;
76786;SDS011;65739;51.482;5.702;2023-02-24T17:17:04;23.05;;;2.42;;
76786;SDS011;65739;51.482;5.702;2023-02-24T17:19:32;15.02;;;3.03;;
76786;SDS011;65739;51.482;5.702;2023-02-24T17:22:01;17.70;;;2.63;;
76786;SDS011;65739;51.482;5.702;2023-02-24T17:24:29;21.95;;;1.83;;
76786;SDS011;65739;51.482;5.702;2023-02-24T17:26:59;13.20;;;1.90;;
76786;SDS011;65739;51.482;5.702;2023-02-24T17:29:25;10.32;;;2.10;;
76786;SDS011;65739;51.482;5.702;2023-02-24T17:31:54;9.43;;;2.05;;
76786;SDS011;65739;51.482;5.702;2023-02-24T17:34:26;10.88;;;1.65;;
76786;SDS011;65739;51.482;5.702;2023-02-24T17:36:52;9.45;;;1.75;;
76786;SDS011;65739;51.482;5.702;2023-02-24T17:39:21;9.77;;;1.90;;
76786;SDS011;65739;51.482;5.702;2023-02-24T17:41:49;7.22;;;1.85;;
76786;SDS011;65739;51.482;5.702;2023-02-24T17:44:15;8.98;;;1.92;;
76786;SDS011;65739;51.482;5.702;2023-02-24T17:46:47;6.82;;;1.35;;
76786;SDS011;65739;51.482;5.702;2023-02-24T17:49:13;7.70;;;1.38;;
76786;SDS011;65739;51.482;5.702;2023-02-24T17:51:57;5.20;;;1.35;;
76786;SDS011;65739;51.482;5.702;2023-02-24T17:54:42;7.70;;;1.02;;
76786;SDS011;65739;51.482;5.702;2023-02-24T17:57:09;5.85;;;1.25;;
76786;SDS011;65739;51.482;5.702;2023-02-24T17:59:37;4.80;;;1.10;;
76786;SDS011;65739;51.482;5.702;2023-02-24T18:02:03;10.07;;;2.05;;
76786;SDS011;65739;51.482;5.702;2023-02-24T18:04:40;8.27;;;1.33;;
76786;SDS011;65739;51.482;5.702;2023-02-24T18:07:09;8.00;;;1.58;;
76786;SDS011;65739;51.482;5.702;2023-02-24T18:09:41;8.13;;;1.40;;
76786;SDS011;65739;51.482;5.702;2023-02-24T18:12:07;14.10;;;1.83;;
76786;SDS011;65739;51.482;5.702;2023-02-24T18:14:33;12.35;;;1.45;;
76786;SDS011;65739;51.482;5.702;2023-02-24T18:17:02;4.35;;;1.27;;
76786;SDS011;65739;51.482;5.702;2023-02-24T18:19:28;18.02;;;1.95;;
76786;SDS011;65739;51.482;5.702;2023-02-24T18:22:00;12.00;;;1.83;;
76786;SDS011;65739;51.482;5.702;2023-02-24T18:24:29;7.68;;;1.70;;
76786;SDS011;65739;51.482;5.702;2023-02-24T18:26:57;10.50;;;1.45;;
76786;SDS011;65739;51.482;5.702;2023-02-24T18:32:17;6.53;;;1.33;;